Time;durP1;ratioP1;P1;durP2;ratioP2;P2;SDS_P1;SDS_P2;PMS_P1;PMS_P2;Temp;Humidity;BMP_temperature;BMP_pressure;BME280_temperature;BME280_humidity;BME280_pressure;Samples;Min_cycle;Max_cycle;Signal;HPM_P1;HPM_P2
2022/09/20 00:01:31;;;;;;;56.22;8.20;;;;;;;-145.49;100.00;62790.56;4970150;28;20045;-74
2022/09/20 00:03:59;;;;;;;39.63;6.57;;;;;;;-145.49;100.00;62790.56;4963754;28;20065;-74
2022/09/20 00:06:29;;;;;;;50.90;6.47;;;;;;;-145.49;100.00;62790.56;4962306;28;20031;-74
2022/09/20 00:09:02;;;;;;;14.85;4.43;;;;;;;-145.49;100.00;62790.56;4980731;28;20438;-74
2022/09/20 00:11:33;;;;;;;42.67;6.30;;;;;;;-145.49;100.00;62790.56;4961353;28;20034;-74
2022/09/20 00:14:04;;;;;;;5.72;3.28;;;;;;;-145.49;100.00;62790.56;4971158;28;20031;-74
2022/09/20 00:16:33;;;;;;;4.95;3.92;;;;;;;-145.49;100.00;62790.56;4965496;28;20046;-74
2022/09/20 00:19:02;;;;;;;8.52;3.92;;;;;;;-145.49;100.00;62790.56;4980733;28;20030;-74
2022/09/20 00:21:30;;;;;;;9.52;4.22;;;;;;;-145.49;100.00;62790.56;4963294;28;20047;-74
2022/09/20 00:23:57;;;;;;;3.97;3.33;;;;;;;-145.49;100.00;62790.56;4963936;28;20039;-74
2022/09/20 00:26:25;;;;;;;4.90;3.75;;;;;;;-145.49;100.00;62790.56;4966870;28;20516;-74
2022/09/20 00:28:59;;;;;;;2.95;2.60;;;;;;;-145.49;100.00;62790.56;4966378;28;20050;-74
2022/09/20 00:31:28;;;;;;;4.65;3.85;;;;;;;-145.49;100.00;62790.56;4934189;29;20038;-74
2022/09/20 00:36:43;;;;;;;5.68;3.78;;;;;;;-145.49;100.00;62790.56;4965460;28;20066;-74
2022/09/20 00:39:11;;;;;;;11.85;4.30;;;;;;;-145.49;100.00;62790.56;4968016;28;20035;-73
2022/09/20 00:41:40;;;;;;;2.80;2.55;;;;;;;-145.49;100.00;62790.56;4965672;28;20366;-74
2022/09/20 00:44:37;;;;;;;2.70;1.98;;;;;;;-145.49;100.00;62790.56;4967151;28;20042;-74
2022/09/20 00:47:05;;;;;;;4.68;2.83;;;;;;;-145.49;100.00;62790.56;4979633;28;20035;-74
2022/09/20 00:49:35;;;;;;;3.10;2.30;;;;;;;-145.49;100.00;62790.56;4971043;28;20050;-74
2022/09/20 00:52:01;;;;;;;3.35;2.92;;;;;;;-145.49;100.00;62790.56;4964395;28;20034;-74
2022/09/20 00:54:32;;;;;;;4.80;2.92;;;;;;;-145.49;100.00;62790.56;4953226;28;20034;-73
2022/09/20 00:56:59;;;;;;;4.10;3.33;;;;;;;-145.49;100.00;62790.56;4970347;28;20038;-73
2022/09/20 00:59:33;;;;;;;4.03;3.22;;;;;;;-145.49;100.00;62790.56;4971122;28;20488;-74
2022/09/20 01:02:01;;;;;;;3.35;2.67;;;;;;;-145.49;100.00;62790.56;4965783;28;20370;-74
2022/09/20 01:04:30;;;;;;;4.22;3.45;;;;;;;-145.49;100.00;62790.56;4962602;28;20027;-74
2022/09/20 01:07:04;;;;;;;3.92;2.40;;;;;;;-145.49;100.00;62790.56;4967655;28;20500;-74
2022/09/20 01:09:33;;;;;;;3.85;2.88;;;;;;;-145.49;100.00;62790.56;4965062;28;20034;-74
2022/09/20 01:12:04;;;;;;;3.75;3.35;;;;;;;-145.49;100.00;62790.56;4980126;28;20052;-73
2022/09/20 01:14:33;;;;;;;6.03;3.60;;;;;;;-145.49;100.00;62790.56;4981475;28;20392;-73
2022/09/20 01:17:04;;;;;;;5.22;3.25;;;;;;;-145.49;100.00;62790.56;4971063;28;20053;-74
2022/09/20 01:19:55;;;;;;;3.33;2.63;;;;;;;-145.49;100.00;62790.56;4976698;28;20401;-74
2022/09/20 01:22:24;;;;;;;8.15;3.80;;;;;;;-145.49;100.00;62790.56;4961078;28;20047;-74
2022/09/20 01:25:19;;;;;;;7.13;4.40;;;;;;;-145.49;100.00;62790.56;4964097;28;20181;-74
2022/09/20 01:27:51;;;;;;;10.23;3.30;;;;;;;-145.49;100.00;62790.56;4968286;28;20062;-74
2022/09/20 01:30:27;;;;;;;5.43;3.50;;;;;;;-145.49;100.00;62790.56;4968788;28;20035;-74
2022/09/20 01:33:18;;;;;;;8.00;4.13;;;;;;;-145.49;100.00;62790.56;4970834;28;20105;-74
2022/09/20 01:35:48;;;;;;;7.15;3.85;;;;;;;-145.49;100.00;62790.56;4966259;28;20035;-74
2022/09/20 01:38:35;;;;;;;13.65;5.32;;;;;;;-145.49;100.00;62790.56;4970067;28;20030;-74
2022/09/20 01:41:12;;;;;;;15.05;4.50;;;;;;;-145.49;100.00;62790.56;4965905;28;20045;-74
2022/09/20 01:43:47;;;;;;;7.18;3.97;;;;;;;-145.49;100.00;62790.56;4978134;28;20043;-73
2022/09/20 01:46:34;;;;;;;9.40;5.20;;;;;;;-145.49;100.00;62790.56;4969730;28;20401;-74
2022/09/20 01:49:20;;;;;;;7.45;3.53;;;;;;;-145.49;100.00;62790.56;4963443;28;20051;-73
2022/09/20 01:52:20;;;;;;;28.35;7.47;;;;;;;-145.49;100.00;62790.56;4945532;28;20042;-74
2022/09/20 01:55:08;;;;;;;6.20;3.50;;;;;;;-145.49;100.00;62790.56;4964383;28;20038;-74
2022/09/20 01:57:48;;;;;;;4.72;3.60;;;;;;;-145.49;100.00;62790.56;4967137;28;20030;-74
2022/09/20 02:00:25;;;;;;;10.95;4.85;;;;;;;-145.49;100.00;62790.56;4966484;28;20043;-73
2022/09/20 02:03:34;;;;;;;6.25;3.90;;;;;;;-145.49;100.00;62790.56;4970028;28;20031;-74
2022/09/20 02:06:19;;;;;;;5.88;3.13;;;;;;;-145.49;100.00;62790.56;4907916;29;20513;-73
2022/09/20 02:08:51;;;;;;;4.18;3.65;;;;;;;-145.49;100.00;62790.56;4963554;28;20508;-73
2022/09/20 02:11:26;;;;;;;5.00;3.17;;;;;;;-145.49;100.00;62790.56;4969534;28;20038;-74
2022/09/20 02:13:55;;;;;;;7.03;3.45;;;;;;;-145.49;100.00;62790.56;4971711;28;20042;-74
2022/09/20 02:16:35;;;;;;;10.90;3.40;;;;;;;-145.49;100.00;62790.56;4967288;28;20031;-74
2022/09/20 02:19:26;;;;;;;16.90;3.75;;;;;;;-145.49;100.00;62790.56;4980376;28;20043;-74
2022/09/20 02:22:14;;;;;;;14.32;4.30;;;;;;;-145.49;100.00;62790.56;4960477;28;20232;-74
2022/09/20 02:25:05;;;;;;;5.57;2.92;;;;;;;-145.49;100.00;62790.56;4963175;28;20051;-74
2022/09/20 02:27:41;;;;;;;9.13;3.20;;;;;;;-145.49;100.00;62790.56;4964735;28;20054;-73
2022/09/20 02:30:39;;;;;;;7.35;3.33;;;;;;;-145.49;100.00;62790.56;4965824;28;20039;-74
2022/09/20 02:33:19;;;;;;;7.22;3.72;;;;;;;-145.49;100.00;62790.56;4981206;28;20512;-73
2022/09/20 02:36:08;;;;;;;13.00;3.67;;;;;;;-145.49;100.00;62790.56;4967076;28;20043;-74
2022/09/20 02:39:09;;;;;;;5.28;3.65;;;;;;;-145.49;100.00;62790.56;4927491;28;20039;-73
2022/09/20 02:42:24;;;;;;;5.90;3.78;;;;;;;-145.49;100.00;62790.56;4971278;28;20034;-73
2022/09/20 02:45:09;;;;;;;15.95;3.72;;;;;;;-145.49;100.00;62790.56;4861359;29;20148;-74
2022/09/20 02:47:43;;;;;;;12.60;4.03;;;;;;;-145.49;100.00;62790.56;4865919;29;20041;-73
2022/09/20 02:50:45;;;;;;;18.80;5.43;;;;;;;-145.49;100.00;62790.56;4940160;28;20050;-74
2022/09/20 02:53:33;;;;;;;9.88;4.18;;;;;;;-145.49;100.00;62790.56;4983426;28;20392;-74
2022/09/20 02:56:18;;;;;;;34.17;5.55;;;;;;;-145.49;100.00;62790.56;4974360;28;20046;-73
2022/09/20 02:59:01;;;;;;;28.77;5.43;;;;;;;-145.49;100.00;62790.56;4966191;28;20528;-73
2022/09/20 03:01:45;;;;;;;18.58;4.30;;;;;;;-145.49;100.00;62790.56;4979741;28;20042;-74
2022/09/20 03:04:29;;;;;;;58.88;7.50;;;;;;;-145.49;100.00;62790.56;4966518;28;20039;-74
2022/09/20 03:06:58;;;;;;;9.60;5.22;;;;;;;-145.49;100.00;62790.56;4973621;28;20050;-74
2022/09/20 03:09:32;;;;;;;35.30;7.07;;;;;;;-145.49;100.00;62790.56;4964969;28;20038;-74
2022/09/20 03:12:24;;;;;;;66.10;9.40;;;;;;;-145.49;100.00;62790.56;4968706;28;20043;-74
2022/09/20 03:15:14;;;;;;;73.47;10.18;;;;;;;-145.49;100.00;62790.56;4969565;28;20043;-73
2022/09/20 03:17:55;;;;;;;59.50;7.90;;;;;;;-145.49;100.00;62790.56;4972918;28;20520;-73
2022/09/20 03:20:32;;;;;;;73.90;8.18;;;;;;;-145.49;100.00;62790.56;4971802;28;20477;-74
2022/09/20 03:23:35;;;;;;;17.85;6.82;;;;;;;-145.49;100.00;62790.56;4984411;28;20054;-74
2022/09/20 03:26:23;;;;;;;93.93;11.80;;;;;;;-145.49;100.00;62790.56;4949838;28;20053;-74
2022/09/20 03:29:02;;;;;;;57.60;10.65;;;;;;;-145.49;100.00;62790.56;4970710;28;20043;-73
2022/09/20 03:31:51;;;;;;;66.20;8.77;;;;;;;-145.49;100.00;62790.56;4965085;28;20120;-73
2022/09/20 03:34:35;;;;;;;61.05;9.07;;;;;;;-145.49;100.00;62790.56;4969341;28;20506;-73
2022/09/20 03:37:14;;;;;;;54.00;8.68;;;;;;;-145.49;100.00;62790.56;4970703;28;20042;-73
2022/09/20 03:40:11;;;;;;;54.40;8.38;;;;;;;-145.49;100.00;62790.56;4967586;28;20039;-74
2022/09/20 03:42:47;;;;;;;93.63;9.02;;;;;;;-145.49;100.00;62790.56;4979155;28;20035;-74
2022/09/20 03:45:14;;;;;;;88.82;9.27;;;;;;;-145.49;100.00;62790.56;4972381;28;20507;-73
2022/09/20 03:47:49;;;;;;;72.13;9.00;;;;;;;-145.49;100.00;62790.56;4990279;23;20058;-83
2022/09/20 03:50:42;;;;;;;47.55;8.23;;;;;;;-145.49;100.00;62790.56;4966478;28;20050;-83
2022/09/20 03:53:45;;;;;;;7.30;4.18;;;;;;;-145.49;100.00;62790.56;4990340;28;20041;-83
2022/09/20 03:56:32;;;;;;;12.32;4.63;;;;;;;-145.49;100.00;62790.56;4991648;28;20045;-82
2022/09/20 03:59:06;;;;;;;5.00;2.95;;;;;;;-145.49;100.00;62790.56;4973257;28;20474;-83
2022/09/20 04:01:41;;;;;;;8.52;4.35;;;;;;;-145.49;100.00;62790.56;4963751;28;20050;-83
2022/09/20 04:04:14;;;;;;;9.13;5.38;;;;;;;-145.49;100.00;62790.56;4968699;28;20034;-83
2022/09/20 04:06:58;;;;;;;12.30;3.80;;;;;;;-145.49;100.00;62790.56;4969529;28;20038;-83
2022/09/20 04:09:46;;;;;;;4.40;3.30;;;;;;;-145.49;100.00;62790.56;4970984;28;20037;-83
2022/09/20 04:12:49;;;;;;;4.95;3.47;;;;;;;-145.49;100.00;62790.56;4970644;28;20054;-84
2022/09/20 04:15:50;;;;;;;23.95;3.65;;;;;;;-145.49;100.00;62790.56;4972760;28;20045;-83
2022/09/20 04:18:26;;;;;;;6.13;5.05;;;;;;;-145.49;100.00;62790.56;4971457;28;20035;-83
2022/09/20 04:21:07;;;;;;;4.72;3.20;;;;;;;-145.49;100.00;62790.56;4970459;28;20039;-83
2022/09/20 04:23:53;;;;;;;7.30;3.97;;;;;;;-145.49;100.00;62790.56;4987337;28;20031;-84
2022/09/20 04:26:33;;;;;;;5.25;4.18;;;;;;;-145.49;100.00;62790.56;4969565;28;20030;-84
2022/09/20 04:29:15;;;;;;;4.72;3.67;;;;;;;-145.49;100.00;62790.56;4965000;28;20035;-82
2022/09/20 04:31:52;;;;;;;3.97;3.25;;;;;;;-145.49;100.00;62790.56;4969150;28;20049;-83
2022/09/20 04:37:26;;;;;;;3.83;3.08;;;;;;;-145.49;100.00;62790.56;4969035;28;20038;-83
2022/09/20 04:40:13;;;;;;;6.18;3.00;;;;;;;-145.49;100.00;62790.56;4973806;28;20038;-83
2022/09/20 04:43:27;;;;;;;7.82;4.18;;;;;;;-145.49;100.00;62790.56;4970536;28;20038;-83
2022/09/20 04:46:08;;;;;;;5.32;3.70;;;;;;;-145.49;100.00;62790.56;4942575;28;20046;-82
2022/09/20 04:49:14;;;;;;;4.05;3.65;;;;;;;-145.49;100.00;62790.56;4972964;28;20477;-83
2022/09/20 04:51:59;;;;;;;63.13;10.02;;;;;;;-145.49;100.00;62790.56;4987407;28;20038;-82
2022/09/20 04:54:50;;;;;;;174.05;20.48;;;;;;;-145.49;100.00;62790.56;4971864;28;20034;-83
2022/09/20 04:57:28;;;;;;;128.25;19.67;;;;;;;-145.49;100.00;62790.56;4988615;28;20496;-83
2022/09/20 05:00:10;;;;;;;187.85;24.77;;;;;;;-145.49;100.00;62790.56;4972926;28;20042;-83
2022/09/20 05:02:41;;;;;;;34.83;7.68;;;;;;;-145.49;100.00;62790.56;4987009;28;20038;-83
2022/09/20 05:05:31;;;;;;;54.25;9.68;;;;;;;-145.49;100.00;62790.56;4964440;28;20046;-83
2022/09/20 05:08:22;;;;;;;122.95;15.27;;;;;;;-145.49;100.00;62790.56;4973197;28;20035;-83
2022/09/20 05:11:11;;;;;;;115.40;16.13;;;;;;;-145.49;100.00;62790.56;4972763;28;20031;-83
2022/09/20 05:14:16;;;;;;;98.10;13.80;;;;;;;-145.49;100.00;62790.56;4971988;28;20041;-83
2022/09/20 05:16:57;;;;;;;111.30;17.73;;;;;;;-145.49;100.00;62790.56;4970360;28;20042;-82
2022/09/20 05:20:01;;;;;;;48.05;8.77;;;;;;;-145.49;100.00;62790.56;4973427;28;20043;-83
2022/09/20 05:23:05;;;;;;;51.85;11.57;;;;;;;-145.49;100.00;62790.56;4971771;28;20408;-83
2022/09/20 05:25:40;;;;;;;84.13;12.73;;;;;;;-145.49;100.00;62790.56;4982873;28;20038;-83
2022/09/20 05:28:33;;;;;;;171.57;23.88;;;;;;;-145.49;100.00;62790.56;4973524;28;20039;-83
2022/09/20 05:31:07;;;;;;;67.38;11.32;;;;;;;-145.49;100.00;62790.56;4970512;28;20041;-83
2022/09/20 05:33:55;;;;;;;77.13;13.15;;;;;;;-145.49;100.00;62790.56;4973154;28;20507;-83
2022/09/20 05:36:49;;;;;;;87.68;10.50;;;;;;;-145.49;100.00;62790.56;4976334;28;20039;-83
2022/09/20 05:39:34;;;;;;;34.03;9.38;;;;;;;-145.49;100.00;62790.56;4968928;28;20382;-84
2022/09/20 05:42:11;;;;;;;214.85;18.70;;;;;;;-145.49;100.00;62790.56;4970335;28;20034;-84
2022/09/20 05:44:49;;;;;;;158.88;18.85;;;;;;;-145.49;100.00;62790.56;4971166;28;20496;-83
2022/09/20 05:47:50;;;;;;;68.65;10.57;;;;;;;-145.49;100.00;62790.56;4967722;28;20047;-83
2022/09/20 05:51:03;;;;;;;69.07;11.80;;;;;;;-145.49;100.00;62790.56;4971745;28;20030;-83
2022/09/20 05:53:41;;;;;;;49.58;8.02;;;;;;;-145.49;100.00;62790.56;4965845;28;20038;-83
2022/09/20 05:56:36;;;;;;;38.80;7.00;;;;;;;-145.49;100.00;62790.56;4964752;28;20046;-83
2022/09/20 05:59:16;;;;;;;83.07;9.98;;;;;;;-145.49;100.00;62790.56;4968427;28;20106;-83
2022/09/20 06:01:59;;;;;;;54.17;8.38;;;;;;;-145.49;100.00;62790.56;4972325;28;20042;-84
2022/09/20 06:05:06;;;;;;;90.43;11.65;;;;;;;-145.49;100.00;62790.56;4969554;28;20039;-83
2022/09/20 06:08:07;;;;;;;45.22;7.72;;;;;;;-145.49;100.00;62790.56;4966350;28;20054;-83
2022/09/20 06:11:01;;;;;;;78.32;10.35;;;;;;;-145.49;100.00;62790.56;4981052;28;20043;-83
2022/09/20 06:13:39;;;;;;;53.28;9.38;;;;;;;-145.49;100.00;62790.56;4974669;28;20058;-84
2022/09/20 06:16:17;;;;;;;52.78;7.53;;;;;;;-145.49;100.00;62790.56;4971402;28;20038;-83
2022/09/20 06:19:16;;;;;;;38.20;8.05;;;;;;;-145.49;100.00;62790.56;4975038;28;20027;-83
2022/09/20 06:21:52;;;;;;;55.72;7.28;;;;;;;-145.49;100.00;62790.56;4969779;28;20053;-82
2022/09/20 06:24:33;;;;;;;33.80;7.22;;;;;;;-145.49;100.00;62790.56;4986473;28;20039;-82
2022/09/20 06:27:18;;;;;;;40.38;7.15;;;;;;;-145.49;100.00;62790.56;4975551;28;20396;-82
2022/09/20 06:29:52;;;;;;;52.92;8.60;;;;;;;-145.49;100.00;62790.56;4974124;28;20255;-82
2022/09/20 06:32:20;;;;;;;;;;;;;;;-145.49;100.00;62790.56;4984847;28;20027;-82
2022/09/20 06:34:47;;;;;;;25.70;6.88;;;;;;;-145.49;100.00;62790.56;4975806;28;19921;-82
2022/09/20 06:43:39;;;;;;;31.60;8.88;;;;;;;-145.49;100.00;62790.56;4975029;28;20038;-82
2022/09/20 06:46:11;;;;;;;27.92;5.38;;;;;;;-145.49;100.00;62790.56;4981917;28;20038;-83
2022/09/20 06:48:42;;;;;;;10.65;7.10;;;;;;;-145.49;100.00;62790.56;4976324;28;20050;-82
2022/09/20 06:51:09;;;;;;;18.98;7.53;;;;;;;-145.49;100.00;62790.56;4975396;28;20046;-82
2022/09/20 06:53:42;;;;;;;9.52;4.82;;;;;;;-145.49;100.00;62790.56;4986053;28;20505;-82
2022/09/20 06:56:18;;;;;;;6.30;5.18;;;;;;;-145.49;100.00;62790.56;4970848;28;20465;-83
2022/09/20 06:58:44;;;;;;;8.75;5.45;;;;;;;-145.49;100.00;62790.56;4998727;28;20034;-82
2022/09/20 07:01:13;;;;;;;10.48;6.07;;;;;;;-145.49;100.00;62790.56;4998276;28;20034;-82
2022/09/20 07:03:44;;;;;;;10.68;8.45;;;;;;;-145.49;100.00;62790.56;4997700;28;20041;-83
2022/09/20 07:06:11;;;;;;;8.77;6.75;;;;;;;-145.49;100.00;62790.56;4996053;28;20015;-82
2022/09/20 07:08:42;;;;;;;9.38;6.50;;;;;;;-145.49;100.00;62790.56;4972258;28;20038;-83
2022/09/20 07:11:15;;;;;;;11.10;6.63;;;;;;;-145.49;100.00;62790.56;4973436;28;20485;-83
2022/09/20 07:13:50;;;;;;;9.52;7.10;;;;;;;-145.49;100.00;62790.56;4988554;28;20045;-83
2022/09/20 07:16:17;;;;;;;9.77;7.43;;;;;;;-145.49;100.00;62790.56;4974944;28;20034;-83
2022/09/20 07:18:50;;;;;;;11.07;8.45;;;;;;;-145.49;100.00;62790.56;4973370;28;20041;-83
2022/09/20 07:21:21;;;;;;;16.00;10.32;;;;;;;-145.49;100.00;62790.56;4969583;28;20027;-83
2022/09/20 07:23:47;;;;;;;6.20;4.72;;;;;;;-145.49;100.00;62790.56;4967654;28;20053;-78
2022/09/20 07:26:19;;;;;;;8.13;5.97;;;;;;;-145.49;100.00;62790.56;4952371;28;20047;-82
2022/09/20 07:28:50;;;;;;;9.23;5.97;;;;;;;-145.49;100.00;62790.56;4971240;28;20539;-82
2022/09/20 07:31:21;;;;;;;7.85;5.10;;;;;;;-145.49;100.00;62790.56;4973140;28;20046;-82
2022/09/20 07:33:52;;;;;;;7.30;5.70;;;;;;;-145.49;100.00;62790.56;4975017;28;20049;-83
2022/09/20 07:36:19;;;;;;;6.13;4.88;;;;;;;-145.49;100.00;62790.56;4972222;28;20042;-83
2022/09/20 07:38:51;;;;;;;6.25;5.43;;;;;;;-145.49;100.00;62790.56;4964993;28;20035;-83
2022/09/20 07:41:25;;;;;;;8.50;5.20;;;;;;;-145.49;100.00;62790.56;4967610;28;20089;-83
2022/09/20 07:44:19;;;;;;;8.23;5.10;;;;;;;-145.49;100.00;62790.56;4989087;28;20042;-82
2022/09/20 07:46:48;;;;;;;6.82;5.40;;;;;;;-145.49;100.00;62790.56;4974160;28;20386;-83
2022/09/20 07:49:16;;;;;;;5.93;5.22;;;;;;;-145.49;100.00;62790.56;4972197;28;20043;-83
2022/09/20 07:51:44;;;;;;;9.68;5.18;;;;;;;-145.49;100.00;62790.56;4988508;28;20027;-83
2022/09/20 07:54:11;;;;;;;7.15;5.93;;;;;;;-145.49;100.00;62790.56;4973664;28;20042;-83
2022/09/20 07:56:38;;;;;;;9.32;7.43;;;;;;;-145.49;100.00;62790.56;4972980;28;20053;-83
2022/09/20 07:59:04;;;;;;;8.35;5.45;;;;;;;-145.49;100.00;62790.56;4969853;28;20043;-83
2022/09/20 08:01:33;;;;;;;11.35;6.68;;;;;;;-145.49;100.00;62790.56;4966829;28;20480;-83
2022/09/20 08:04:05;;;;;;;7.05;5.45;;;;;;;-145.49;100.00;62790.56;4967752;28;20050;-83
2022/09/20 08:06:36;;;;;;;6.18;4.93;;;;;;;-145.49;100.00;62790.56;4973522;28;20033;-83
2022/09/20 08:09:12;;;;;;;5.57;5.07;;;;;;;-145.49;100.00;62790.56;4965181;28;20042;-84
2022/09/20 08:11:44;;;;;;;13.88;5.60;;;;;;;-145.49;100.00;62790.56;4971715;28;20400;-83
2022/09/20 08:14:16;;;;;;;9.00;5.75;;;;;;;-145.49;100.00;62790.56;4973958;28;20046;-83
2022/09/20 08:16:44;;;;;;;6.85;4.57;;;;;;;-145.49;100.00;62790.56;4970876;28;20035;-83
2022/09/20 08:19:19;;;;;;;5.30;3.92;;;;;;;-145.49;100.00;62790.56;4970192;28;20027;-83
2022/09/20 08:21:55;;;;;;;18.98;6.45;;;;;;;-145.49;100.00;62790.56;4986190;28;20050;-84
2022/09/20 08:24:21;;;;;;;5.60;4.70;;;;;;;-145.49;100.00;62790.56;4972565;28;20041;-83
2022/09/20 08:26:49;;;;;;;10.05;4.30;;;;;;;-145.49;100.00;62790.56;4973729;28;20039;-83
2022/09/20 08:29:18;;;;;;;6.63;4.85;;;;;;;-145.49;100.00;62790.56;4971784;28;20065;-83
2022/09/20 08:31:45;;;;;;;15.60;7.65;;;;;;;-145.49;100.00;62790.56;4972760;28;20408;-84
2022/09/20 08:34:13;;;;;;;9.18;5.38;;;;;;;-145.49;100.00;62790.56;4952841;28;20035;-83
2022/09/20 08:36:45;;;;;;;9.20;4.63;;;;;;;-145.49;100.00;62790.56;4985943;28;20035;-84
2022/09/20 08:39:14;;;;;;;7.35;4.68;;;;;;;-145.49;100.00;62790.56;4973116;28;20038;-84
2022/09/20 08:41:53;;;;;;;5.30;3.30;;;;;;;-145.49;100.00;62790.56;4971323;28;20038;-84
2022/09/20 08:44:31;;;;;;;5.78;4.10;;;;;;;-145.49;100.00;62790.56;4954107;28;20047;-84
2022/09/20 08:47:20;;;;;;;10.45;3.60;;;;;;;-145.49;100.00;62790.56;4971255;28;20043;-84
2022/09/20 08:49:47;;;;;;;8.35;4.30;;;;;;;-145.49;100.00;62790.56;4969804;28;20043;-84
2022/09/20 08:52:39;;;;;;;5.38;3.22;;;;;;;-145.49;100.00;62790.56;4965768;28;20122;-84
2022/09/20 08:55:30;;;;;;;7.50;3.25;;;;;;;-145.49;100.00;62790.56;4985517;28;20062;-85
2022/09/20 08:58:01;;;;;;;4.55;2.78;;;;;;;-145.49;100.00;62790.56;4971154;28;20042;-84
2022/09/20 09:00:32;;;;;;;4.85;3.33;;;;;;;-145.49;100.00;62790.56;4968638;28;20039;-84
2022/09/20 09:03:12;;;;;;;4.90;3.15;;;;;;;-145.49;100.00;62790.56;4972572;28;20038;-84
2022/09/20 09:05:52;;;;;;;5.43;3.08;;;;;;;-145.49;100.00;62790.56;4955349;28;20396;-84
2022/09/20 09:08:34;;;;;;;8.48;3.70;;;;;;;-145.49;100.00;62790.56;4987836;28;20225;-84
2022/09/20 09:11:12;;;;;;;5.80;3.65;;;;;;;-145.49;100.00;62790.56;4968191;28;20038;-83
2022/09/20 09:14:46;;;;;;;8.73;3.53;;;;;;;-145.49;100.00;62790.56;4954472;28;20042;-84
2022/09/20 09:16:53;;;;;;;4.72;2.40;;;;;;;-145.49;100.00;62790.56;4971528;28;20050;-84
2022/09/20 09:19:30;;;;;;;8.48;2.75;;;;;;;-145.49;100.00;62790.56;5004913;28;20027;-85
2022/09/20 09:22:03;;;;;;;7.82;2.40;;;;;;;-145.49;100.00;62790.56;4985781;28;20053;-84
2022/09/20 09:24:31;;;;;;;6.65;2.92;;;;;;;-145.49;100.00;62790.56;4971969;28;20042;-84
2022/09/20 09:27:13;;;;;;;7.72;3.63;;;;;;;-145.49;100.00;62790.56;4971623;28;20050;-85
2022/09/20 09:29:55;;;;;;;5.55;2.58;;;;;;;-145.49;100.00;62790.56;4954549;28;20038;-85
2022/09/20 09:32:31;;;;;;;4.53;2.22;;;;;;;-145.49;100.00;62790.56;4969572;28;20038;-86
2022/09/20 09:35:23;;;;;;;3.28;2.22;;;;;;;-145.49;100.00;62790.56;4984920;28;20528;-85
2022/09/20 09:38:02;;;;;;;3.60;1.40;;;;;;;-145.49;100.00;62790.56;4985928;28;20485;-85
2022/09/20 09:40:31;;;;;;;5.50;2.20;;;;;;;-145.49;100.00;62790.56;4966314;28;20031;-85
2022/09/20 09:43:02;;;;;;;6.80;2.60;;;;;;;-145.49;100.00;62790.56;4963860;28;20039;-85
2022/09/20 09:45:37;;;;;;;4.40;2.30;;;;;;;-145.49;100.00;62790.56;4971120;28;20485;-85
2022/09/20 09:48:26;;;;;;;3.90;2.17;;;;;;;-145.49;100.00;62790.56;4984741;23;20042;-73
2022/09/20 09:51:16;;;;;;;4.55;2.25;;;;;;;-145.49;100.00;62790.56;4955453;28;20042;-74
2022/09/20 09:53:47;;;;;;;6.38;2.05;;;;;;;-145.49;100.00;62790.56;4975281;28;20034;-74
2022/09/20 09:56:48;;;;;;;5.78;1.90;;;;;;;-145.49;100.00;62790.56;4974147;28;20046;-74
2022/09/20 09:59:39;;;;;;;3.15;2.85;;;;;;;-145.49;100.00;62790.56;4947452;28;20053;-74
2022/09/20 10:02:19;;;;;;;6.05;3.08;;;;;;;-145.49;100.00;62790.56;4953805;28;20031;-74
2022/09/20 10:04:59;;;;;;;7.32;2.13;;;;;;;-145.49;100.00;62790.56;4954986;28;20046;-74
2022/09/20 10:07:58;;;;;;;4.80;1.70;;;;;;;-145.49;100.00;62790.56;4952750;29;20031;-74
2022/09/20 10:10:38;;;;;;;6.15;1.65;;;;;;;-145.49;100.00;62790.56;4975000;28;20036;-74
2022/09/20 10:13:27;;;;;;;4.00;1.80;;;;;;;-145.49;100.00;62790.56;4979746;28;20035;-74
2022/09/20 10:16:01;;;;;;;4.40;2.42;;;;;;;-145.49;100.00;62790.56;4972685;28;20043;-74
2022/09/20 10:18:33;;;;;;;4.43;2.65;;;;;;;-145.49;100.00;62790.56;4955790;28;20076;-74
2022/09/20 10:21:37;;;;;;;6.47;2.95;;;;;;;-145.49;100.00;62790.56;4975713;28;20038;-75
2022/09/20 10:24:29;;;;;;;17.15;2.67;;;;;;;-145.49;100.00;62790.56;4948690;28;20039;-74
2022/09/20 10:27:13;;;;;;;3.67;2.65;;;;;;;-145.49;100.00;62790.56;4982462;28;20039;-75
2022/09/20 10:29:52;;;;;;;4.28;1.65;;;;;;;-145.49;100.00;62790.56;4985865;28;20040;-75
2022/09/20 10:32:35;;;;;;;5.00;3.00;;;;;;;-145.49;100.00;62790.56;4966913;28;20035;-74
2022/09/20 10:35:35;;;;;;;3.35;2.17;;;;;;;-145.49;100.00;62790.56;4946420;29;20043;-74
2022/09/20 10:38:09;;;;;;;13.15;2.92;;;;;;;-145.49;100.00;62790.56;4977772;28;20046;-75
2022/09/20 10:44:08;;;;;;;6.05;2.83;;;;;;;-145.49;100.00;62790.56;4953720;28;20039;-75
2022/09/20 10:46:49;;;;;;;9.00;2.55;;;;;;;-145.49;100.00;62790.56;4954303;29;20538;-75
2022/09/20 10:49:34;;;;;;;2.90;2.25;;;;;;;-145.49;100.00;62790.56;4953745;29;20050;-75
2022/09/20 10:52:19;;;;;;;5.53;2.72;;;;;;;-145.49;100.00;62790.56;4953979;28;20046;-74
2022/09/20 10:54:54;;;;;;;4.93;1.77;;;;;;;-145.49;100.00;62790.56;4955023;28;20039;-74
2022/09/20 10:57:44;;;;;;;6.65;2.67;;;;;;;-145.49;100.00;62790.56;4955475;28;20062;-74
2022/09/20 11:00:43;;;;;;;5.53;2.05;;;;;;;-145.49;100.00;62790.56;4942652;28;20486;-74
2022/09/20 11:03:40;;;;;;;4.03;1.52;;;;;;;-145.49;100.00;62790.56;4950600;28;20039;-74
2022/09/20 11:06:22;;;;;;;11.20;3.00;;;;;;;-145.49;100.00;62790.56;4950609;28;20042;-75
2022/09/20 11:08:56;;;;;;;5.60;3.60;;;;;;;-145.49;100.00;62790.56;4955318;28;20043;-74
2022/09/20 11:11:34;;;;;;;10.68;4.00;;;;;;;-145.49;100.00;62790.56;4967468;28;20048;-74
2022/09/20 11:14:15;;;;;;;9.85;3.75;;;;;;;-145.49;100.00;62790.56;4986379;28;20039;-74
2022/09/20 11:16:49;;;;;;;4.35;3.33;;;;;;;-145.49;100.00;62790.56;4968661;28;20042;-74
2022/09/20 11:19:34;;;;;;;16.13;5.05;;;;;;;-145.49;100.00;62790.56;4962662;28;20488;-74
2022/09/20 11:22:11;;;;;;;4.97;3.30;;;;;;;-145.49;100.00;62790.56;4957390;28;20046;-74
2022/09/20 11:24:44;;;;;;;9.73;3.90;;;;;;;-145.49;100.00;62790.56;4987558;28;20244;-74
2022/09/20 11:27:17;;;;;;;8.88;4.20;;;;;;;-145.49;100.00;62790.56;4966280;28;20031;-73
2022/09/20 11:29:51;;;;;;;4.32;3.08;;;;;;;-145.49;100.00;62790.56;4970148;28;20047;-74
2022/09/20 11:32:44;;;;;;;4.50;3.05;;;;;;;-145.49;100.00;62790.56;4985115;28;20035;-73
2022/09/20 11:35:10;;;;;;;7.75;3.42;;;;;;;-145.49;100.00;62790.56;4957097;28;20046;-73
2022/09/20 11:37:43;;;;;;;7.30;4.20;;;;;;;-145.49;100.00;62790.56;4966888;28;20043;-74
2022/09/20 11:40:31;;;;;;;5.15;3.88;;;;;;;-145.49;100.00;62790.56;4964540;28;20061;-72
2022/09/20 11:43:04;;;;;;;6.20;2.92;;;;;;;-145.49;100.00;62790.56;4983748;28;20512;-73
2022/09/20 11:45:37;;;;;;;8.93;2.97;;;;;;;-145.49;100.00;62790.56;4961416;28;20040;-73
2022/09/20 11:48:13;;;;;;;5.32;3.88;;;;;;;-145.49;100.00;62790.56;4957431;28;20038;-74
2022/09/20 11:51:02;;;;;;;3.28;2.47;;;;;;;-145.49;100.00;62790.56;4952467;28;20640;-73
2022/09/20 11:53:28;;;;;;;6.15;3.22;;;;;;;-145.49;100.00;62790.56;4953884;28;20520;-73
2022/09/20 11:56:13;;;;;;;5.72;3.15;;;;;;;-145.49;100.00;62790.56;4951886;28;20042;-73
2022/09/20 11:58:54;;;;;;;6.13;2.60;;;;;;;-145.49;100.00;62790.56;4952748;28;20060;-74
2022/09/20 12:01:33;;;;;;;6.13;3.17;;;;;;;-145.49;100.00;62790.56;4950798;28;20039;-73
2022/09/20 12:04:11;;;;;;;2.72;2.28;;;;;;;-145.49;100.00;62790.56;4947757;28;20039;-73
2022/09/20 12:06:41;;;;;;;5.63;3.00;;;;;;;-145.49;100.00;62790.56;4982984;28;20521;-74
2022/09/20 12:09:32;;;;;;;4.28;2.10;;;;;;;-145.49;100.00;62790.56;4945412;28;20042;-73
2022/09/20 12:12:13;;;;;;;6.05;2.33;;;;;;;-145.49;100.00;62790.56;4952061;28;20043;-73
2022/09/20 12:14:51;;;;;;;5.72;2.10;;;;;;;-145.49;100.00;62790.56;4966184;28;20039;-74
2022/09/20 12:17:42;;;;;;;5.13;2.42;;;;;;;-145.49;100.00;62790.56;4967519;28;20040;-75
2022/09/20 12:20:31;;;;;;;4.65;2.45;;;;;;;-145.49;100.00;62790.56;4952389;28;20047;-74